Hypoluxo, Florida
Current Conditions -  °F | °C
As of 4:53 AM on Sunday 26 Oct 2014 (Local Time) from KPBI Reporting Station
Clear Clear  
Wind Chill: 66°   Ceiling: Unl
Heat Index: 66°   Visibility: 10mi
Dew Point: 64°   Wind: 6mph
Humidity: 93%   Direction: 320°NW
Pressure: 29.89"   Gusts: NA
Location:  26.5758°N, 80.0835°W
Report Text: KPBI 260853Z 32005KT 10SM CLR 19/18 A2989 RMK AO2 SLP122 T01890178 55006
Loading
Personal Weather Stations






























Interactive Weather Map New forecast layout! Learn more

10-Day Weather Forecast

Advertisements
Track Severe Weather on mobile